Mones Cazon, Argentina
Current Conditions -  °F | °C
As of 11:00 AM on Friday 24 Oct 2014 (Local Time) from SAEZ Reporting Station
Clear Clear  
Wind Chill: 27°   Ceiling: Unl
Heat Index: 28°   Visibility: 5mi
Dew Point: 19°   Wind: 3mph
Humidity: 61%   Direction: 60°ENE
Pressure: 30"   Gusts: NA
Location:  36.23°S, 62°W
Report Text: SAEZ 241400Z 06003KT 360V100 8000 NSC 27/19 Q1016
Loading
Personal Weather Stations






























Interactive Weather Map
Tropical Storm Tracking
New forecast layout! Learn more

10-Day Weather Forecast

Advertisements
Track Severe Weather on mobile